Time;durP1;ratioP1;P1;durP2;ratioP2;P2;SDS_P1;SDS_P2;PMS_P1;PMS_P2;Temp;Humidity;BMP_temperature;BMP_pressure;BME280_temperature;BME280_humidity;BME280_pressure;Samples;Min_cycle;Max_cycle;Signal;HPM_P1;HPM_P2
2023/07/30 00:01:49;;;;;;;0.20;0.20;;;;;;;17.11;81.43;96966.31;5039718;28;20076;-75
2023/07/30 00:04:17;;;;;;;0.10;0.10;;;;;;;17.07;81.50;96962.47;5040892;28;20041;-75
2023/07/30 00:06:45;;;;;;;0.20;0.20;;;;;;;17.09;81.34;96963.84;5041156;28;20117;-75
2023/07/30 00:09:12;;;;;;;0.25;0.25;;;;;;;16.99;81.54;96966.44;5040618;28;20073;-75
2023/07/30 00:11:40;;;;;;;0.10;0.10;;;;;;;16.95;81.65;96959.06;5040124;28;20047;-75
2023/07/30 00:14:08;;;;;;;0.20;0.20;;;;;;;16.92;81.82;96957.72;5041873;28;20132;-74
2023/07/30 00:16:37;;;;;;;0.10;0.10;;;;;;;16.95;81.83;96954.50;5041559;28;20045;-74
2023/07/30 00:19:04;;;;;;;0.13;0.13;;;;;;;17.00;81.63;96956.47;5040684;28;20418;-74
2023/07/30 00:21:32;;;;;;;0.10;0.10;;;;;;;16.98;81.43;96951.31;5041283;28;20533;-75
2023/07/30 00:24:00;;;;;;;0.10;0.10;;;;;;;16.91;81.97;96953.38;5040757;28;20052;-74
2023/07/30 00:26:28;;;;;;;0.10;0.10;;;;;;;16.86;81.96;96950.63;5040986;28;20060;-75
2023/07/30 00:28:57;;;;;;;0.03;0.03;;;;;;;16.81;82.12;96962.16;5040987;28;20037;-75
2023/07/30 00:31:25;;;;;;;0.05;0.05;;;;;;;16.79;82.25;96955.38;5040667;28;20049;-75
2023/07/30 00:33:54;;;;;;;0.10;0.10;;;;;;;16.78;82.37;96957.25;5041789;28;20048;-74
2023/07/30 00:36:21;;;;;;;0.00;0.00;;;;;;;16.71;82.49;96962.03;5023643;28;20517;-75
2023/07/30 00:38:51;;;;;;;0.10;0.10;;;;;;;16.66;82.71;96966.53;5025800;28;20163;-75
2023/07/30 00:41:19;;;;;;;0.10;0.10;;;;;;;16.64;82.61;96969.47;5024701;28;20258;-75
2023/07/30 00:43:47;;;;;;;0.10;0.10;;;;;;;16.59;82.66;96968.56;5042943;28;20119;-75
2023/07/30 00:46:15;;;;;;;0.10;0.10;;;;;;;16.59;82.88;96965.84;5044796;28;20037;-75
2023/07/30 00:48:43;;;;;;;0.10;0.10;;;;;;;16.61;82.85;96969.13;5024625;28;20045;-75
2023/07/30 00:51:14;;;;;;;0.10;0.10;;;;;;;16.69;82.42;96969.53;5024111;28;20044;-75
2023/07/30 00:53:42;;;;;;;0.10;0.10;;;;;;;16.60;82.60;96973.69;5025628;28;20095;-75
2023/07/30 00:56:09;;;;;;;0.10;0.10;;;;;;;16.59;82.74;96972.06;5043114;28;20623;-75
2023/07/30 00:58:37;;;;;;;0.10;0.10;;;;;;;16.61;82.67;96969.13;5044013;28;20105;-75
2023/07/30 01:01:05;;;;;;;0.10;0.10;;;;;;;16.56;82.74;96971.75;5041516;28;20079;-75
2023/07/30 01:03:33;;;;;;;0.10;0.10;;;;;;;16.54;82.90;96971.97;5040066;28;20037;-74
2023/07/30 01:06:01;;;;;;;0.10;0.10;;;;;;;16.51;83.01;96981.38;5027552;28;20037;-75
2023/07/30 01:08:30;;;;;;;0.10;0.10;;;;;;;16.52;83.27;96964.13;5081787;22;20048;-74
2023/07/30 01:10:58;;;;;;;0.10;0.10;;;;;;;16.56;82.99;96974.44;5046791;28;20064;-74
2023/07/30 01:13:26;;;;;;;0.10;0.10;;;;;;;16.63;82.85;96967.81;5047496;28;20040;-74
2023/07/30 01:15:54;;;;;;;0.10;0.10;;;;;;;16.60;83.02;96978.28;5048422;28;20420;-74
2023/07/30 01:18:22;;;;;;;0.20;0.20;;;;;;;16.65;82.75;96986.44;5051809;28;20033;-74
2023/07/30 01:20:54;;;;;;;0.43;0.43;;;;;;;16.56;83.18;96977.13;5042420;28;20961;-74
2023/07/30 01:23:21;;;;;;;0.10;0.10;;;;;;;16.50;83.42;96971.69;5025430;28;20695;-75
2023/07/30 01:25:50;;;;;;;0.20;0.20;;;;;;;16.51;83.63;96970.59;5042870;28;20056;-74
2023/07/30 01:28:18;;;;;;;0.10;0.10;;;;;;;16.59;83.49;96963.16;5042279;28;20041;-74
2023/07/30 01:30:48;;;;;;;0.10;0.10;;;;;;;16.65;83.19;96972.97;5024914;28;20049;-75
2023/07/30 01:33:16;;;;;;;0.10;0.10;;;;;;;16.72;83.03;96977.09;5026200;28;20049;-75
2023/07/30 01:35:43;;;;;;;0.10;0.10;;;;;;;16.74;83.05;96975.00;5043176;28;20044;-75
2023/07/30 01:38:13;;;;;;;0.10;0.10;;;;;;;16.73;83.09;96970.66;5043625;28;20460;-74
2023/07/30 01:40:42;;;;;;;0.10;0.10;;;;;;;16.81;82.70;96958.66;5042646;28;20119;-74
2023/07/30 01:43:09;;;;;;;0.10;0.10;;;;;;;16.82;82.71;96953.00;5043243;28;20044;-74
2023/07/30 01:45:38;;;;;;;0.10;0.10;;;;;;;16.98;82.48;96962.09;5043591;28;20053;-74
2023/07/30 01:48:06;;;;;;;0.17;0.17;;;;;;;16.85;82.39;96973.25;5025553;28;20405;-75
2023/07/30 01:50:33;;;;;;;0.10;0.10;;;;;;;16.84;83.21;96963.53;5024920;28;20041;-75
2023/07/30 01:53:01;;;;;;;0.10;0.10;;;;;;;16.74;82.76;96963.38;5039680;28;20049;-75
2023/07/30 01:55:30;;;;;;;0.10;0.10;;;;;;;16.69;83.07;96969.53;5025980;28;20052;-75
2023/07/30 01:57:58;;;;;;;0.10;0.10;;;;;;;16.63;83.56;96961.63;5024452;28;20049;-75
2023/07/30 02:00:26;;;;;;;0.10;0.10;;;;;;;16.66;83.47;96964.66;5025764;28;20514;-74
2023/07/30 02:03:04;;;;;;;0.10;0.10;;;;;;;16.64;83.64;96963.25;5040937;28;20056;-74
2023/07/30 02:05:32;;;;;;;0.13;0.13;;;;;;;16.69;83.67;96966.03;5025933;28;20120;-74
2023/07/30 02:08:00;;;;;;;0.10;0.10;;;;;;;16.67;83.86;96957.38;5025475;28;20041;-75
2023/07/30 02:10:28;;;;;;;0.10;0.10;;;;;;;16.71;83.98;96962.03;5043533;28;20043;-74
2023/07/30 02:12:57;;;;;;;0.10;0.10;;;;;;;16.72;83.99;96966.31;5028386;28;20065;-74
2023/07/30 02:15:24;;;;;;;0.10;0.10;;;;;;;16.73;84.33;96959.88;5028073;28;20782;-74
2023/07/30 02:17:52;;;;;;;0.20;0.20;;;;;;;16.75;83.96;96968.53;5045069;28;20040;-74
2023/07/30 02:20:20;;;;;;;0.10;0.10;;;;;;;16.78;83.99;96972.63;5045427;28;20073;-74
2023/07/30 02:22:47;;;;;;;0.10;0.10;;;;;;;16.79;83.94;96972.38;5040639;28;20045;-74
2023/07/30 02:25:15;;;;;;;0.28;0.28;;;;;;;16.78;83.87;96967.22;5024586;28;20488;-74
2023/07/30 02:27:43;;;;;;;0.10;0.10;;;;;;;16.72;84.42;96960.94;5023632;28;20056;-74
2023/07/30 02:30:12;;;;;;;0.05;0.05;;;;;;;16.71;84.62;96961.22;5023641;28;20128;-72
2023/07/30 02:32:40;;;;;;;0.10;0.10;;;;;;;16.76;84.38;96963.97;5041610;28;20047;-73
2023/07/30 02:35:08;;;;;;;0.13;0.13;;;;;;;16.75;84.41;96962.31;5024652;28;20056;-73
2023/07/30 02:37:35;;;;;;;0.08;0.08;;;;;;;16.78;84.45;96964.53;5025405;28;20573;-73
2023/07/30 02:40:04;;;;;;;0.13;0.13;;;;;;;16.80;84.39;96954.31;5041070;28;20055;-74
2023/07/30 02:42:32;;;;;;;0.10;0.10;;;;;;;16.82;84.35;96958.38;5024169;28;20070;-74
2023/07/30 02:45:00;;;;;;;0.10;0.10;;;;;;;16.89;84.26;96950.13;5042616;28;20114;-74
2023/07/30 02:47:29;;;;;;;0.10;0.10;;;;;;;16.90;84.02;96951.75;5042567;28;20064;-74
2023/07/30 02:49:57;;;;;;;0.08;0.08;;;;;;;16.97;84.18;96960.47;5024741;28;20489;-74
2023/07/30 02:52:24;;;;;;;0.10;0.10;;;;;;;16.99;83.93;96955.66;5041640;28;20124;-75
2023/07/30 02:54:52;;;;;;;0.10;0.10;;;;;;;17.01;83.90;96963.47;5038219;28;20072;-75
2023/07/30 02:57:20;;;;;;;0.10;0.10;;;;;;;17.00;83.81;96959.97;5023935;28;20115;-75
2023/07/30 02:59:47;;;;;;;0.13;0.13;;;;;;;17.02;83.93;96965.94;5040908;28;20052;-74
2023/07/30 03:02:15;;;;;;;0.10;0.10;;;;;;;16.99;84.06;96973.69;5023886;28;20045;-75
2023/07/30 03:04:44;;;;;;;0.20;0.20;;;;;;;16.94;84.17;96971.75;5024721;28;20044;-75
2023/07/30 03:07:12;;;;;;;0.10;0.10;;;;;;;16.92;84.43;96973.91;5024481;28;20052;-75
2023/07/30 03:09:40;;;;;;;0.10;0.10;;;;;;;16.91;84.62;96980.34;5024197;28;20513;-74
2023/07/30 03:12:08;;;;;;;0.05;0.05;;;;;;;16.89;84.78;96979.78;5043682;28;20053;-74
2023/07/30 03:14:36;;;;;;;0.10;0.10;;;;;;;16.91;84.80;96990.31;5045213;28;20047;-74
2023/07/30 03:17:05;;;;;;;0.30;0.30;;;;;;;16.91;84.80;96977.66;5044419;28;20448;-74
2023/07/30 03:19:33;;;;;;;0.10;0.10;;;;;;;16.91;85.07;96979.53;5042715;28;20055;-74
2023/07/30 03:22:02;;;;;;;0.10;0.10;;;;;;;16.97;84.80;96981.22;5025051;28;20059;-74
2023/07/30 03:24:30;;;;;;;0.13;0.13;;;;;;;17.00;85.08;96976.16;5041511;28;20038;-74
2023/07/30 03:26:57;;;;;;;0.10;0.10;;;;;;;16.94;85.30;96974.44;5022841;28;20055;-74
2023/07/30 03:29:25;;;;;;;0.10;0.10;;;;;;;16.98;85.58;96970.19;5023464;28;20068;-74
2023/07/30 03:31:53;;;;;;;0.10;0.10;;;;;;;16.96;85.92;96975.00;5046546;28;20060;-73
2023/07/30 03:34:20;;;;;;;0.10;0.10;;;;;;;16.93;86.26;96963.91;5042814;28;20037;-73
2023/07/30 03:36:48;;;;;;;0.10;0.10;;;;;;;16.96;86.36;96968.81;5041953;28;20108;-73
2023/07/30 03:39:17;;;;;;;0.10;0.10;;;;;;;16.93;86.64;96970.09;5024755;28;20106;-74
2023/07/30 03:41:45;;;;;;;0.10;0.10;;;;;;;17.02;86.76;96973.22;5021857;28;20055;-74
2023/07/30 03:44:13;;;;;;;0.15;0.15;;;;;;;16.97;86.42;96965.03;5041657;28;20086;-74
2023/07/30 03:46:40;;;;;;;0.10;0.10;;;;;;;16.94;86.84;96966.34;5023137;28;20037;-74
2023/07/30 03:49:08;;;;;;;0.10;0.10;;;;;;;16.94;86.79;96963.66;5022463;28;20046;-74
2023/07/30 03:51:36;;;;;;;0.10;0.10;;;;;;;16.94;87.11;96971.75;5023548;28;20060;-74
2023/07/30 03:54:04;;;;;;;0.10;0.10;;;;;;;16.89;87.16;96963.59;5042288;28;20122;-73
2023/07/30 03:56:33;;;;;;;0.10;0.10;;;;;;;16.87;87.59;96963.84;5041536;28;20136;-74
2023/07/30 03:59:01;;;;;;;0.10;0.10;;;;;;;16.92;87.43;96967.69;5022403;28;20044;-74
2023/07/30 04:01:30;;;;;;;0.10;0.10;;;;;;;16.91;87.47;96974.13;5023573;28;20076;-73
2023/07/30 04:03:58;;;;;;;0.10;0.10;;;;;;;16.88;87.91;96973.56;5042941;28;20048;-74
2023/07/30 04:06:25;;;;;;;0.10;0.10;;;;;;;16.94;87.51;96981.72;5030236;28;20099;-74
2023/07/30 04:08:53;;;;;;;0.28;0.28;;;;;;;17.02;87.62;96986.69;5027686;28;20437;-74
2023/07/30 04:11:20;;;;;;;0.20;0.20;;;;;;;17.00;87.62;96983.41;5047299;28;20116;-74
2023/07/30 04:13:49;;;;;;;0.10;0.10;;;;;;;17.01;87.82;96985.06;5030572;28;20060;-74
2023/07/30 04:16:17;;;;;;;0.10;0.10;;;;;;;17.04;87.75;96988.03;5037440;28;20052;-74
2023/07/30 04:18:45;;;;;;;0.10;0.10;;;;;;;17.03;87.69;96994.50;5023743;28;20048;-73
2023/07/30 04:21:13;;;;;;;0.10;0.10;;;;;;;17.01;87.93;96993.97;5040476;28;20044;-74
2023/07/30 04:23:41;;;;;;;0.10;0.10;;;;;;;16.99;87.96;96997.97;5022976;28;20063;-73
2023/07/30 04:26:08;;;;;;;0.10;0.10;;;;;;;17.08;88.00;96996.47;5041107;28;20037;-73
2023/07/30 04:28:36;;;;;;;0.10;0.10;;;;;;;17.02;88.09;97002.88;5024101;28;20037;-74
2023/07/30 04:31:07;;;;;;;0.10;0.10;;;;;;;17.04;88.28;97000.72;5025005;28;20045;-73
2023/07/30 04:33:35;;;;;;;0.10;0.10;;;;;;;17.09;88.23;97004.31;5023166;28;20064;-74
2023/07/30 04:36:03;;;;;;;0.10;0.10;;;;;;;17.10;88.42;97002.44;5024113;28;20073;-74
2023/07/30 04:38:31;;;;;;;0.10;0.10;;;;;;;17.05;88.27;96995.06;5023917;28;20045;-73
2023/07/30 04:40:59;;;;;;;0.10;0.10;;;;;;;17.07;88.48;97011.00;5026249;28;20137;-73
2023/07/30 04:43:28;;;;;;;0.10;0.10;;;;;;;17.12;88.34;97003.00;5026019;28;20045;-73
2023/07/30 04:45:57;;;;;;;0.00;0.00;;;;;;;17.05;88.74;97010.44;5026977;28;20061;-73
2023/07/30 04:48:27;;;;;;;0.10;0.10;;;;;;;17.06;88.70;97003.97;5025636;28;20055;-73
2023/07/30 04:50:55;;;;;;;0.10;0.10;;;;;;;17.11;88.39;97012.16;5044016;28;20041;-74
2023/07/30 04:53:23;;;;;;;0.43;0.43;;;;;;;17.12;88.41;97014.59;5043348;28;20438;-74
2023/07/30 04:55:56;;;;;;;0.20;0.20;;;;;;;17.11;88.49;97010.28;5026329;28;20090;-73
2023/07/30 04:58:24;;;;;;;0.28;0.28;;;;;;;17.12;88.48;97003.81;5026499;28;20499;-74
2023/07/30 05:00:51;;;;;;;0.10;0.10;;;;;;;17.13;88.55;97018.91;5028061;28;20047;-74
2023/07/30 05:03:19;;;;;;;0.10;0.10;;;;;;;17.18;88.51;97016.28;5043056;28;20033;-74
2023/07/30 05:05:48;;;;;;;0.10;0.10;;;;;;;17.24;88.14;97019.84;5043842;28;20064;-74
2023/07/30 05:08:16;;;;;;;0.10;0.10;;;;;;;17.22;88.27;97025.53;5044629;28;20060;-74
2023/07/30 05:10:43;;;;;;;0.20;0.20;;;;;;;17.21;88.23;97026.59;5044570;28;20395;-74
2023/07/30 05:13:12;;;;;;;0.10;0.10;;;;;;;17.20;88.46;97037.63;5042129;28;20045;-74
2023/07/30 05:15:40;;;;;;;0.10;0.10;;;;;;;17.20;88.68;97035.75;5045397;28;20060;-73
2023/07/30 05:18:08;;;;;;;0.00;0.00;;;;;;;17.19;88.72;97033.28;5043315;28;20132;-74
2023/07/30 05:20:35;;;;;;;0.10;0.10;;;;;;;17.19;88.55;97039.50;5042272;28;20069;-75
2023/07/30 05:23:06;;;;;;;0.03;0.03;;;;;;;17.19;88.25;97036.81;5043477;28;20044;-74
2023/07/30 05:25:34;;;;;;;0.10;0.10;;;;;;;17.23;88.44;97048.69;5042881;28;20045;-74
2023/07/30 05:28:02;;;;;;;0.10;0.10;;;;;;;17.23;88.54;97048.69;5042902;28;20037;-74
2023/07/30 05:30:29;;;;;;;0.10;0.10;;;;;;;17.33;88.14;97052.63;5043215;28;20041;-74
2023/07/30 05:32:57;;;;;;;0.10;0.10;;;;;;;17.37;88.04;97064.53;5044337;28;20076;-73
2023/07/30 05:35:25;;;;;;;0.10;0.10;;;;;;;17.36;88.04;97062.88;5043643;28;20512;-74
2023/07/30 05:37:52;;;;;;;0.10;0.10;;;;;;;17.43;88.39;97066.25;5043503;28;20068;-74
2023/07/30 05:40:21;;;;;;;0.10;0.10;;;;;;;17.51;87.74;97065.78;5043506;28;20038;-74
2023/07/30 05:42:49;;;;;;;0.10;0.10;;;;;;;17.58;87.85;97074.50;5042670;28;20052;-74
2023/07/30 05:45:17;;;;;;;0.10;0.10;;;;;;;17.64;87.55;97073.53;5044797;28;20047;-74
2023/07/30 05:47:46;;;;;;;0.10;0.10;;;;;;;17.74;87.39;97073.66;5043286;28;20140;-75
2023/07/30 05:50:13;;;;;;;0.10;0.10;;;;;;;17.81;87.42;97073.44;5043570;28;20033;-74
2023/07/30 05:52:41;;;;;;;0.10;0.10;;;;;;;17.87;86.56;97077.81;5042815;28;20112;-74
2023/07/30 05:55:09;;;;;;;0.10;0.10;;;;;;;17.91;86.39;97074.38;5043162;28;20049;-74
2023/07/30 05:57:38;;;;;;;0.10;0.10;;;;;;;17.88;86.68;97077.56;5043058;28;20041;-74
2023/07/30 06:00:07;;;;;;;0.10;0.10;;;;;;;17.88;86.54;97079.47;5042642;28;20517;-74
2023/07/30 06:02:41;;;;;;;0.10;0.10;;;;;;;17.88;86.82;97082.16;5041586;28;20063;-74
2023/07/30 06:05:09;;;;;;;0.10;0.10;;;;;;;17.89;86.69;97084.59;5044351;28;20073;-74
2023/07/30 06:07:37;;;;;;;0.10;0.10;;;;;;;17.89;87.04;97078.38;5044394;28;20128;-74
2023/07/30 06:10:05;;;;;;;0.10;0.10;;;;;;;17.95;86.69;97083.63;5043316;28;20084;-74
2023/07/30 06:12:33;;;;;;;0.10;0.10;;;;;;;18.04;86.62;97081.25;5041384;28;20055;-74
2023/07/30 06:15:02;;;;;;;0.00;0.00;;;;;;;18.10;86.41;97085.63;5044163;28;20525;-75
2023/07/30 06:17:29;;;;;;;0.10;0.10;;;;;;;18.11;85.95;97092.69;5042640;28;20073;-75
2023/07/30 06:20:00;;;;;;;0.10;0.10;;;;;;;18.14;86.02;97096.75;5041937;28;20567;-74
2023/07/30 06:22:28;;;;;;;0.10;0.10;;;;;;;18.14;86.14;97092.16;5044416;28;20063;-74
2023/07/30 06:24:56;;;;;;;0.25;0.25;;;;;;;18.11;85.51;97094.56;5041831;28;20203;-74
2023/07/30 06:27:23;;;;;;;0.10;0.10;;;;;;;18.08;86.02;97098.56;5042591;28;20045;-75
2023/07/30 06:29:51;;;;;;;0.10;0.10;;;;;;;18.13;85.65;97093.25;5043247;28;20495;-73
2023/07/30 06:32:20;;;;;;;0.10;0.10;;;;;;;18.17;85.92;97101.66;5041891;28;20056;-74
2023/07/30 06:34:48;;;;;;;0.10;0.10;;;;;;;18.22;85.52;97097.09;5043415;28;20045;-72
2023/07/30 06:37:16;;;;;;;0.10;0.10;;;;;;;18.26;85.25;97100.94;5043479;28;20076;-74
2023/07/30 06:39:43;;;;;;;0.10;0.10;;;;;;;18.39;85.07;97102.38;5043062;28;20072;-76
2023/07/30 06:42:11;;;;;;;0.10;0.10;;;;;;;18.42;83.78;97099.19;5023623;28;20049;-74
2023/07/30 06:44:39;;;;;;;0.10;0.10;;;;;;;18.46;83.10;97097.59;5042158;28;20041;-74
2023/07/30 06:47:06;;;;;;;0.10;0.10;;;;;;;18.53;82.74;97097.38;5042195;28;20049;-73
2023/07/30 06:49:36;;;;;;;0.20;0.20;;;;;;;18.54;82.76;97088.22;5041209;28;20510;-74
2023/07/30 06:52:05;;;;;;;0.10;0.10;;;;;;;18.64;82.13;97091.84;5041099;28;20045;-73
2023/07/30 06:54:33;;;;;;;0.13;0.13;;;;;;;18.78;81.67;97102.22;5024490;28;20467;-74
2023/07/30 06:57:02;;;;;;;0.10;0.10;;;;;;;18.84;81.31;97106.59;5040453;28;20048;-74
2023/07/30 06:59:30;;;;;;;0.10;0.10;;;;;;;18.87;80.39;97103.38;5040403;28;20073;-73
2023/07/30 07:01:59;;;;;;;0.10;0.10;;;;;;;18.82;80.83;97106.03;5039642;28;20038;-72
2023/07/30 07:04:26;;;;;;;0.10;0.10;;;;;;;18.88;80.93;97113.13;5041368;28;20517;-73
2023/07/30 07:06:55;;;;;;;0.00;0.00;;;;;;;18.98;80.11;97107.78;5041819;28;20053;-73
2023/07/30 07:09:24;;;;;;;0.20;0.20;;;;;;;18.95;79.69;97100.19;5085310;22;20055;-74
2023/07/30 07:11:52;;;;;;;0.10;0.10;;;;;;;19.00;79.78;97101.00;5044140;28;20052;-74
2023/07/30 07:14:19;;;;;;;0.10;0.10;;;;;;;19.05;79.21;97092.94;5062317;28;20048;-74
2023/07/30 07:16:48;;;;;;;0.10;0.10;;;;;;;19.04;79.37;97104.03;5061659;28;20507;-74
2023/07/30 07:19:16;;;;;;;0.10;0.10;;;;;;;19.04;79.40;97104.03;5043793;28;20045;-75
2023/07/30 07:21:44;;;;;;;0.00;0.00;;;;;;;19.13;78.92;97107.88;5039655;28;20108;-74
2023/07/30 07:24:13;;;;;;;0.10;0.10;;;;;;;19.21;78.65;97101.97;5042095;28;20029;-74
2023/07/30 07:26:40;;;;;;;0.10;0.10;;;;;;;19.22;78.36;97109.00;5023885;28;20053;-73
2023/07/30 07:29:08;;;;;;;0.10;0.10;;;;;;;19.26;78.62;97112.81;5041075;28;20103;-73
2023/07/30 07:31:36;;;;;;;0.10;0.10;;;;;;;19.28;78.05;97113.38;5041372;28;20056;-73
2023/07/30 07:34:03;;;;;;;0.10;0.10;;;;;;;19.32;77.88;97105.53;5042172;28;20592;-73
2023/07/30 07:36:31;;;;;;;0.05;0.05;;;;;;;19.39;77.57;97103.44;5041508;28;20515;-73
2023/07/30 07:38:59;;;;;;;0.15;0.15;;;;;;;19.33;77.12;97088.22;5043756;28;20049;-74
2023/07/30 07:41:29;;;;;;;0.10;0.10;;;;;;;19.38;77.16;97097.19;5023812;28;20650;-74
2023/07/30 07:43:56;;;;;;;0.10;0.10;;;;;;;19.49;77.36;97098.09;5024463;28;20140;-74
2023/07/30 07:46:26;;;;;;;0.00;0.00;;;;;;;19.51;76.67;97098.66;5040591;28;20042;-74
2023/07/30 07:48:54;;;;;;;0.10;0.10;;;;;;;19.49;77.08;97095.38;5041633;28;20131;-74
2023/07/30 07:51:21;;;;;;;0.00;0.00;;;;;;;19.55;77.44;97098.91;5039467;28;20052;-74
2023/07/30 07:53:49;;;;;;;0.10;0.10;;;;;;;19.52;76.50;97094.84;5039831;28;20037;-74
2023/07/30 07:56:16;;;;;;;0.10;0.10;;;;;;;19.45;76.68;97094.25;5040727;28;20045;-74
2023/07/30 07:58:45;;;;;;;0.10;0.10;;;;;;;19.42;77.08;97090.16;5039980;28;20041;-74
2023/07/30 08:01:13;;;;;;;0.00;0.00;;;;;;;19.48;76.88;97098.31;5040979;28;20041;-74
2023/07/30 08:03:41;;;;;;;0.10;0.10;;;;;;;19.61;76.48;97096.00;5040146;28;20576;-74
2023/07/30 08:06:09;;;;;;;0.10;0.10;;;;;;;19.81;76.02;97089.03;5039478;28;20033;-74
2023/07/30 08:08:37;;;;;;;0.20;0.20;;;;;;;20.02;75.93;97102.38;5039693;28;20041;-75
2023/07/30 08:11:07;;;;;;;0.10;0.10;;;;;;;20.10;74.54;97092.88;5040181;28;20033;-74
2023/07/30 08:13:36;;;;;;;0.10;0.10;;;;;;;20.19;74.20;97094.00;5043022;28;20040;-74
2023/07/30 08:16:05;;;;;;;0.10;0.10;;;;;;;20.28;73.69;97108.63;5044921;28;20383;-74
2023/07/30 08:18:33;;;;;;;0.00;0.00;;;;;;;20.18;72.36;97097.78;5049858;28;20040;-74
2023/07/30 08:21:01;;;;;;;0.08;0.08;;;;;;;20.18;71.78;97100.50;5044446;28;20067;-74
2023/07/30 08:23:28;;;;;;;0.10;0.10;;;;;;;20.36;71.01;97105.44;5043671;28;20130;-74
2023/07/30 08:25:56;;;;;;;0.10;0.10;;;;;;;20.60;69.65;97107.63;5026187;28;20076;-74
2023/07/30 08:28:24;;;;;;;0.00;0.00;;;;;;;20.77;69.12;97103.53;5042476;28;20120;-74
2023/07/30 08:30:51;;;;;;;0.10;0.10;;;;;;;20.72;67.65;97100.84;5043178;28;20036;-74
2023/07/30 08:33:21;;;;;;;0.10;0.10;;;;;;;20.67;66.71;97103.56;5044494;28;20051;-74
2023/07/30 08:35:48;;;;;;;0.30;0.30;;;;;;;20.72;67.01;97097.31;5043540;28;20446;-74
2023/07/30 08:38:16;;;;;;;0.10;0.10;;;;;;;20.79;66.50;97095.13;5043373;28;20041;-74
2023/07/30 08:40:44;;;;;;;0.10;0.10;;;;;;;20.82;65.49;97098.13;5043593;28;20049;-73
2023/07/30 08:43:12;;;;;;;0.10;0.10;;;;;;;20.85;64.68;97094.88;5043722;28;20045;-74
2023/07/30 08:45:40;;;;;;;0.10;0.10;;;;;;;20.94;64.26;97097.84;5044127;28;20041;-74
2023/07/30 08:48:09;;;;;;;0.05;0.05;;;;;;;21.11;64.23;97097.56;5044294;28;20078;-73
2023/07/30 08:50:38;;;;;;;0.00;0.00;;;;;;;21.30;63.28;97090.47;5043331;28;20029;-73
2023/07/30 08:53:07;;;;;;;0.10;0.10;;;;;;;21.47;62.50;97101.03;5042991;28;20498;-75
2023/07/30 08:55:35;;;;;;;0.00;0.00;;;;;;;21.38;61.38;97091.84;5043536;28;20048;-74
2023/07/30 08:58:04;;;;;;;0.10;0.10;;;;;;;21.91;60.91;97095.69;5041850;28;20384;-75
2023/07/30 09:00:35;;;;;;;0.10;0.10;;;;;;;22.20;60.30;97088.50;5026041;28;20045;-74
2023/07/30 09:03:05;;;;;;;0.00;0.00;;;;;;;22.28;57.14;97090.63;5042512;28;20038;-74
2023/07/30 09:05:33;;;;;;;0.00;0.00;;;;;;;22.07;57.81;97082.88;5043383;28;20088;-73
2023/07/30 09:08:02;;;;;;;0.00;0.00;;;;;;;22.18;57.32;97087.97;5043081;28;20119;-73
2023/07/30 09:10:29;;;;;;;0.10;0.10;;;;;;;22.15;57.10;97090.44;5044340;28;20107;-74
2023/07/30 09:12:58;;;;;;;0.00;0.00;;;;;;;21.89;58.64;97093.28;5043227;28;20045;-73
2023/07/30 09:15:33;;;;;;;0.10;0.10;;;;;;;22.00;58.04;97080.47;5045353;28;20046;-75
2023/07/30 09:18:01;;;;;;;0.10;0.10;;;;;;;22.09;57.59;97081.50;5042437;28;20049;-74
2023/07/30 09:20:37;;;;;;;0.10;0.10;;;;;;;22.52;56.55;97082.56;5043099;28;20082;-74
2023/07/30 09:23:07;;;;;;;0.10;0.10;;;;;;;22.70;57.13;97100.13;5043431;28;20387;-74
2023/07/30 09:25:35;;;;;;;0.00;0.00;;;;;;;22.75;56.46;97096.53;5042931;28;20099;-74
2023/07/30 09:28:03;;;;;;;0.10;0.10;;;;;;;22.64;56.91;97096.59;5041840;28;20051;-74
2023/07/30 09:30:33;;;;;;;0.00;0.00;;;;;;;22.58;56.15;97095.03;5026031;28;20052;-74
2023/07/30 09:33:00;;;;;;;0.10;0.10;;;;;;;22.51;55.76;97080.13;5043795;28;20045;-75
2023/07/30 09:35:28;;;;;;;0.03;0.03;;;;;;;22.52;55.63;97089.94;5044376;28;20482;-75
2023/07/30 09:38:01;;;;;;;0.10;0.10;;;;;;;22.75;55.07;97083.75;5042165;28;20115;-75
2023/07/30 09:40:35;;;;;;;0.00;0.00;;;;;;;22.69;55.74;97080.25;5042469;28;20045;-75
2023/07/30 09:43:03;;;;;;;0.10;0.10;;;;;;;22.68;55.42;97077.81;5042782;28;20052;-75
2023/07/30 09:45:35;;;;;;;0.10;0.10;;;;;;;22.61;54.88;97077.34;5025309;28;20053;-75
2023/07/30 09:48:04;;;;;;;0.00;0.00;;;;;;;23.01;54.17;97081.63;5045025;28;20536;-75
2023/07/30 09:50:32;;;;;;;0.00;0.00;;;;;;;23.00;52.28;97089.00;5046708;28;20547;-75
2023/07/30 09:53:01;;;;;;;0.05;0.05;;;;;;;23.01;52.74;97077.00;5048725;28;20059;-72
2023/07/30 09:55:29;;;;;;;0.00;0.00;;;;;;;23.15;51.40;97070.91;5045890;28;20219;-73
2023/07/30 09:57:58;;;;;;;0.03;0.03;;;;;;;23.22;51.58;97074.88;5043609;28;20049;-74
2023/07/30 10:00:27;;;;;;;0.03;0.03;;;;;;;23.24;52.07;97080.88;5043254;28;20070;-73
2023/07/30 10:02:56;;;;;;;0.00;0.00;;;;;;;23.21;52.72;97076.00;5043412;28;20041;-73
2023/07/30 10:05:26;;;;;;;0.03;0.03;;;;;;;23.42;52.11;97061.03;5043311;28;20086;-74
2023/07/30 10:07:58;;;;;;;0.05;0.05;;;;;;;23.54;50.10;97063.41;5047381;28;20068;-73
2023/07/30 10:10:26;;;;;;;0.00;0.00;;;;;;;23.52;50.66;97070.22;5043142;28;20049;-73
2023/07/30 10:12:55;;;;;;;0.00;0.00;;;;;;;23.48;51.36;97059.06;5044627;28;20049;-73
2023/07/30 10:15:24;;;;;;;0.10;0.10;;;;;;;23.84;50.25;97069.56;5042871;28;20083;-73
2023/07/30 10:17:52;;;;;;;0.10;0.10;;;;;;;23.81;49.35;97070.16;5042469;28;20156;-73
2023/07/30 10:20:25;;;;;;;0.00;0.00;;;;;;;23.88;49.69;97067.88;5041716;28;20072;-73
2023/07/30 10:22:54;;;;;;;0.00;0.00;;;;;;;23.87;49.48;97066.25;5042809;28;20045;-73
2023/07/30 10:25:22;;;;;;;0.10;0.10;;;;;;;24.14;48.02;97060.97;5044233;28;20501;-73
2023/07/30 10:27:51;;;;;;;0.00;0.00;;;;;;;23.99;48.01;97058.44;5047781;28;20049;-74
2023/07/30 10:30:20;;;;;;;0.10;0.10;;;;;;;23.69;48.43;97055.00;5047230;28;20164;-74
2023/07/30 10:33:11;;;;;;;0.10;0.10;;;;;;;23.46;48.23;97052.31;5025500;28;20487;-74
2023/07/30 10:35:40;;;;;;;0.00;0.00;;;;;;;23.53;48.46;97050.88;5038335;28;20052;-74
2023/07/30 10:38:20;;;;;;;0.10;0.10;;;;;;;23.77;47.90;97048.91;5042181;28;20525;-74
2023/07/30 10:41:05;;;;;;;0.10;0.10;;;;;;;23.86;48.27;97037.38;5042631;28;20099;-73
2023/07/30 10:43:36;;;;;;;0.00;0.00;;;;;;;23.86;48.86;97049.09;5049392;28;20144;-74
2023/07/30 10:46:03;;;;;;;0.03;0.03;;;;;;;23.90;47.24;97043.84;5046679;28;20065;-74
2023/07/30 10:48:34;;;;;;;0.10;0.10;;;;;;;24.30;46.63;97035.09;5041464;28;20490;-74
2023/07/30 10:51:03;;;;;;;0.00;0.00;;;;;;;24.56;45.56;97045.63;5041375;28;20053;-74
2023/07/30 10:53:30;;;;;;;0.03;0.03;;;;;;;24.69;45.60;97040.22;5040800;28;20112;-74
2023/07/30 10:56:01;;;;;;;0.00;0.00;;;;;;;24.48;44.17;97038.94;5042033;28;20049;-74
2023/07/30 10:58:29;;;;;;;0.10;0.10;;;;;;;24.40;44.28;97036.84;5042241;28;20450;-74
2023/07/30 11:00:57;;;;;;;0.10;0.10;;;;;;;24.19;44.66;97032.81;5042383;28;20147;-74
2023/07/30 11:03:26;;;;;;;0.00;0.00;;;;;;;24.42;45.06;97024.53;5042582;28;20466;-74
2023/07/30 11:05:55;;;;;;;0.10;0.10;;;;;;;24.48;45.85;97028.00;5042606;28;20087;-74
2023/07/30 11:08:33;;;;;;;0.00;0.00;;;;;;;24.47;45.96;97027.22;5041853;28;20048;-74
2023/07/30 11:11:01;;;;;;;0.10;0.10;;;;;;;24.52;45.97;97034.47;5041897;28;20083;-74
2023/07/30 11:13:29;;;;;;;0.10;0.10;;;;;;;24.29;47.58;97025.31;5047240;28;20040;-74
2023/07/30 11:15:57;;;;;;;0.00;0.00;;;;;;;24.16;47.69;97020.56;5053206;28;20059;-74
2023/07/30 11:18:25;;;;;;;0.10;0.10;;;;;;;24.28;46.20;97025.63;5041520;28;20049;-74
2023/07/30 11:20:53;;;;;;;0.00;0.00;;;;;;;24.03;46.08;97018.56;5040550;28;20098;-74
2023/07/30 11:23:23;;;;;;;0.00;0.00;;;;;;;23.90;47.22;97030.22;5042247;28;20037;-74
2023/07/30 11:25:51;;;;;;;0.00;0.00;;;;;;;24.32;46.30;97040.25;5040624;28;20056;-73
2023/07/30 11:28:30;;;;;;;0.00;0.00;;;;;;;24.44;46.14;97041.44;5042566;28;20429;-74
2023/07/30 11:31:01;;;;;;;0.05;0.05;;;;;;;24.41;46.37;97041.22;5042278;28;20144;-74
2023/07/30 11:33:29;;;;;;;0.10;0.10;;;;;;;24.27;46.52;97022.06;5042594;28;20064;-74
2023/07/30 11:35:57;;;;;;;0.10;0.10;;;;;;;24.55;47.01;97022.97;5041505;28;20394;-74
2023/07/30 11:38:27;;;;;;;0.10;0.10;;;;;;;24.87;46.25;97038.53;5041152;28;20041;-74
2023/07/30 11:40:56;;;;;;;0.00;0.00;;;;;;;24.80;44.08;97033.47;5040354;28;20063;-74